Time;durP1;ratioP1;P1;durP2;ratioP2;P2;SDS_P1;SDS_P2;PMS_P1;PMS_P2;Temp;Humidity;BMP_temperature;BMP_pressure;BME280_temperature;BME280_humidity;BME280_pressure;Samples;Min_cycle;Max_cycle;Signal;HPM_P1;HPM_P2
2022/11/15 00:35:46;;;;;;;65.53;20.98;;;;;;;;;;5007828;28;20593;-79
2022/11/15 00:38:12;;;;;;;80.75;22.98;;;;;;;;;;5007114;28;20062;-77
2022/11/15 00:40:39;;;;;;;72.95;21.75;;;;;;;;;;4989856;28;20041;-77
2022/11/15 00:43:05;;;;;;;84.38;23.63;;;;;;;;;;4990988;28;20054;-77
2022/11/15 00:45:31;;;;;;;84.65;23.88;;;;;;;;;;4991917;28;20054;-78
2022/11/15 00:47:58;;;;;;;79.78;22.58;;;;;;;;;;5007807;28;20050;-77
2022/11/15 00:50:24;;;;;;;86.13;23.50;;;;;;;;;;5006950;28;20167;-78
2022/11/15 00:52:50;;;;;;;79.43;24.67;;;;;;;;;;4981640;28;20030;-79
2022/11/15 00:55:17;;;;;;;84.50;23.85;;;;;;;;;;5005130;28;20054;-80
2022/11/15 00:57:44;;;;;;;84.20;23.92;;;;;;;;;;4987421;28;20052;-77
2022/11/15 01:00:10;;;;;;;84.47;23.80;;;;;;;;;;4987523;28;20062;-79
2022/11/15 01:02:37;;;;;;;80.40;22.88;;;;;;;;;;5012421;28;20053;-80
2022/11/15 01:05:03;;;;;;;83.32;23.35;;;;;;;;;;5003297;28;20062;-78
2022/11/15 01:07:29;;;;;;;78.95;23.05;;;;;;;;;;4990847;28;20924;-79
2022/11/15 01:09:56;;;;;;;72.68;21.92;;;;;;;;;;5004582;28;20085;-77
2022/11/15 01:12:22;;;;;;;80.82;23.63;;;;;;;;;;4991358;28;20058;-77
2022/11/15 01:14:49;;;;;;;80.40;23.08;;;;;;;;;;4988506;28;20062;-79
2022/11/15 01:17:15;;;;;;;100.07;24.77;;;;;;;;;;4991017;28;20057;-78
2022/11/15 01:19:42;;;;;;;75.85;22.60;;;;;;;;;;4990974;28;20050;-78
2022/11/15 01:22:08;;;;;;;85.65;23.88;;;;;;;;;;5007538;28;20507;-79
2022/11/15 01:24:34;;;;;;;85.65;23.05;;;;;;;;;;5002578;28;20066;-81
2022/11/15 01:27:01;;;;;;;81.30;23.65;;;;;;;;;;4990209;28;20520;-79
2022/11/15 01:29:27;;;;;;;80.55;23.13;;;;;;;;;;4991272;28;20061;-77
2022/11/15 01:31:53;;;;;;;83.95;23.17;;;;;;;;;;4991648;28;20504;-76
2022/11/15 01:34:20;;;;;;;87.53;24.85;;;;;;;;;;4989562;28;20085;-77
2022/11/15 01:36:46;;;;;;;81.88;24.05;;;;;;;;;;5016262;28;20513;-78
2022/11/15 01:39:13;;;;;;;82.10;23.73;;;;;;;;;;5006666;28;20039;-77
2022/11/15 01:41:39;;;;;;;75.45;23.13;;;;;;;;;;4990035;28;20050;-79
2022/11/15 01:44:24;;;;;;;84.35;23.90;;;;;;;;;;4990999;28;20059;-79
2022/11/15 01:46:51;;;;;;;82.93;24.70;;;;;;;;;;5007532;28;20057;-77
2022/11/15 01:49:19;;;;;;;93.15;24.80;;;;;;;;;;4994002;28;20580;-76
2022/11/15 01:51:45;;;;;;;93.32;26.20;;;;;;;;;;4994376;28;20113;-76
2022/11/15 01:54:15;;;;;;;79.88;24.73;;;;;;;;;;5002655;28;20054;-79
2022/11/15 01:56:44;;;;;;;77.07;23.13;;;;;;;;;;4992586;28;20054;-77
2022/11/15 01:59:11;;;;;;;78.20;24.25;;;;;;;;;;5010298;28;20115;-80
2022/11/15 02:01:38;;;;;;;81.63;24.33;;;;;;;;;;5006000;28;20560;-77
2022/11/15 02:04:24;;;;;;;89.80;24.17;;;;;;;;;;5010218;28;20066;-78
2022/11/15 02:06:50;;;;;;;77.65;23.63;;;;;;;;;;4988730;28;20051;-79
2022/11/15 02:09:17;;;;;;;83.57;24.20;;;;;;;;;;4993120;28;20062;-80
2022/11/15 02:11:45;;;;;;;78.72;24.30;;;;;;;;;;5012233;28;20666;-77
2022/11/15 02:14:13;;;;;;;78.32;24.10;;;;;;;;;;4992544;28;20053;-79
2022/11/15 02:16:46;;;;;;;79.60;23.45;;;;;;;;;;5009262;28;20117;-76
2022/11/15 02:19:21;;;;;;;90.45;24.48;;;;;;;;;;4993829;28;20051;-76
2022/11/15 02:21:47;;;;;;;79.20;24.77;;;;;;;;;;4993832;28;20062;-77
2022/11/15 02:24:32;;;;;;;85.75;25.52;;;;;;;;;;4989343;28;20058;-77
2022/11/15 02:27:18;;;;;;;85.15;24.88;;;;;;;;;;4996978;28;20046;-77
2022/11/15 02:30:06;;;;;;;73.43;23.65;;;;;;;;;;5018263;28;20449;-79
2022/11/15 02:32:43;;;;;;;75.60;24.73;;;;;;;;;;4994983;28;20062;-76
2022/11/15 02:35:28;;;;;;;82.38;24.77;;;;;;;;;;5009551;28;20054;-79
2022/11/15 02:38:33;;;;;;;73.20;24.80;;;;;;;;;;5006464;28;20065;-79
2022/11/15 02:41:09;;;;;;;72.80;25.33;;;;;;;;;;4928133;28;20079;-76
2022/11/15 02:43:56;;;;;;;70.90;24.00;;;;;;;;;;4932792;28;20534;-77
2022/11/15 02:49:27;;;;;;;70.95;23.50;;;;;;;;;;5010657;28;20829;-78
2022/11/15 02:51:54;;;;;;;66.07;22.77;;;;;;;;;;4992134;28;20066;-76
2022/11/15 02:54:25;;;;;;;66.03;24.67;;;;;;;;;;4989670;28;20061;-78
2022/11/15 02:56:53;;;;;;;78.18;25.90;;;;;;;;;;5000359;28;20051;-79
2022/11/15 02:59:27;;;;;;;73.47;24.48;;;;;;;;;;4989293;28;20062;-80
2022/11/15 03:02:17;;;;;;;73.07;24.60;;;;;;;;;;4983309;28;20062;-78
2022/11/15 03:04:49;;;;;;;77.05;24.30;;;;;;;;;;4993855;28;20042;-77
2022/11/15 03:07:19;;;;;;;75.65;24.52;;;;;;;;;;4989086;28;20086;-77
2022/11/15 03:09:51;;;;;;;74.53;24.15;;;;;;;;;;5002961;28;20193;-78
2022/11/15 03:12:27;;;;;;;71.88;24.83;;;;;;;;;;4992692;28;20903;-78
2022/11/15 03:15:00;;;;;;;66.05;23.58;;;;;;;;;;5007256;28;20768;-76
2022/11/15 03:17:28;;;;;;;61.00;21.40;;;;;;;;;;4990275;28;20047;-77
2022/11/15 03:19:56;;;;;;;73.07;24.98;;;;;;;;;;5009131;28;20055;-78
2022/11/15 03:22:26;;;;;;;72.82;24.67;;;;;;;;;;5004581;28;20052;-79
2022/11/15 03:24:54;;;;;;;66.07;23.65;;;;;;;;;;5007787;28;20054;-77
2022/11/15 03:27:23;;;;;;;65.97;23.77;;;;;;;;;;5009184;28;20065;-78
2022/11/15 03:29:54;;;;;;;64.20;23.15;;;;;;;;;;4993099;28;20410;-79
2022/11/15 03:32:24;;;;;;;70.60;24.08;;;;;;;;;;4993029;28;20859;-76
2022/11/15 03:34:58;;;;;;;69.75;24.38;;;;;;;;;;4987733;28;20509;-78
2022/11/15 03:37:29;;;;;;;69.18;25.88;;;;;;;;;;4988283;28;20458;-77
2022/11/15 03:39:55;;;;;;;70.65;23.85;;;;;;;;;;4990904;28;20555;-79
2022/11/15 03:42:26;;;;;;;60.72;22.92;;;;;;;;;;4992311;28;20057;-80
2022/11/15 03:45:12;;;;;;;67.85;23.38;;;;;;;;;;5007001;28;20081;-77
2022/11/15 03:47:41;;;;;;;67.82;23.60;;;;;;;;;;5009764;28;20510;-76
2022/11/15 03:50:10;;;;;;;69.93;24.55;;;;;;;;;;4988674;28;20481;-78
2022/11/15 03:52:37;;;;;;;71.07;23.65;;;;;;;;;;4984655;28;20054;-79
2022/11/15 03:55:03;;;;;;;66.63;25.17;;;;;;;;;;4989097;28;20055;-77
2022/11/15 03:57:30;;;;;;;70.78;23.52;;;;;;;;;;4986423;28;20055;-79
2022/11/15 03:59:56;;;;;;;70.00;25.55;;;;;;;;;;4989783;28;20058;-78
2022/11/15 04:02:22;;;;;;;66.90;23.90;;;;;;;;;;4992219;28;20050;-78
2022/11/15 04:04:49;;;;;;;83.75;25.00;;;;;;;;;;4990533;28;20959;-78
2022/11/15 04:07:15;;;;;;;75.10;25.25;;;;;;;;;;5002494;28;20577;-80
2022/11/15 04:12:32;;;;;;;70.10;23.92;;;;;;;;;;5007712;28;20050;-79
2022/11/15 04:15:09;;;;;;;76.38;24.95;;;;;;;;;;5008540;28;20058;-78
2022/11/15 04:17:46;;;;;;;79.07;26.00;;;;;;;;;;5008764;28;20046;-76
2022/11/15 04:25:47;;;;;;;87.22;25.08;;;;;;;;;;5012625;28;20057;-76
2022/11/15 04:28:13;;;;;;;72.55;23.50;;;;;;;;;;5010372;28;20504;-79
2022/11/15 04:30:39;;;;;;;68.25;24.77;;;;;;;;;;5017651;28;20058;-79
2022/11/15 04:33:06;;;;;;;71.60;24.13;;;;;;;;;;5008559;28;20069;-79
2022/11/15 04:35:32;;;;;;;72.05;24.45;;;;;;;;;;4986254;28;20058;-76
2022/11/15 04:37:59;;;;;;;70.22;23.75;;;;;;;;;;4989438;28;20062;-79
2022/11/15 04:40:25;;;;;;;70.35;22.95;;;;;;;;;;5007389;28;20151;-76
2022/11/15 04:42:51;;;;;;;83.28;25.23;;;;;;;;;;4992156;28;20065;-77
2022/11/15 04:45:18;;;;;;;77.30;25.45;;;;;;;;;;5009838;28;20226;-77
2022/11/15 04:47:45;;;;;;;80.93;26.33;;;;;;;;;;5000049;28;20058;-78
2022/11/15 04:50:13;;;;;;;76.47;25.70;;;;;;;;;;5001512;28;20061;-79
2022/11/15 04:52:49;;;;;;;70.15;25.02;;;;;;;;;;4986189;28;20081;-79
2022/11/15 04:55:15;;;;;;;67.28;24.48;;;;;;;;;;4990925;28;20894;-79
2022/11/15 04:57:42;;;;;;;72.32;24.92;;;;;;;;;;4994032;28;20047;-79
2022/11/15 05:00:10;;;;;;;66.35;24.55;;;;;;;;;;4990367;28;20062;-78
2022/11/15 05:05:21;;;;;;;68.97;23.98;;;;;;;;;;5007508;28;20808;-78
2022/11/15 05:07:47;;;;;;;63.75;23.23;;;;;;;;;;4988587;28;20054;-78
2022/11/15 05:10:14;;;;;;;67.30;23.73;;;;;;;;;;5005152;28;20049;-78
2022/11/15 05:12:40;;;;;;;56.60;22.13;;;;;;;;;;4990604;28;20042;-79
2022/11/15 05:15:07;;;;;;;62.88;21.80;;;;;;;;;;4990290;28;21295;-78
2022/11/15 05:17:33;;;;;;;65.25;23.30;;;;;;;;;;5019496;28;20065;-80
2022/11/15 05:19:59;;;;;;;64.03;22.35;;;;;;;;;;5006421;28;20046;-76
2022/11/15 05:22:27;;;;;;;62.65;23.30;;;;;;;;;;4990279;28;20062;-77
2022/11/15 05:24:54;;;;;;;66.38;23.88;;;;;;;;;;4992785;28;20062;-76
2022/11/15 05:27:20;;;;;;;63.00;22.95;;;;;;;;;;5007529;28;20067;-76
2022/11/15 05:29:46;;;;;;;59.72;23.80;;;;;;;;;;5009483;28;20071;-76
2022/11/15 05:32:13;;;;;;;69.15;23.83;;;;;;;;;;5010117;28;20058;-78
2022/11/15 05:34:39;;;;;;;63.30;23.58;;;;;;;;;;5003213;28;20053;-79
2022/11/15 05:37:06;;;;;;;67.97;22.42;;;;;;;;;;5001149;28;20031;-78
2022/11/15 05:39:32;;;;;;;60.33;22.25;;;;;;;;;;4991944;28;20499;-78
2022/11/15 05:42:05;;;;;;;64.25;23.52;;;;;;;;;;4992830;28;20089;-76
2022/11/15 05:44:32;;;;;;;63.40;23.27;;;;;;;;;;4988252;28;20062;-79
2022/11/15 05:46:58;;;;;;;67.65;23.77;;;;;;;;;;5009060;28;20046;-79
2022/11/15 05:49:27;;;;;;;64.45;21.92;;;;;;;;;;5007761;28;20824;-80
2022/11/15 05:51:53;;;;;;;63.88;22.20;;;;;;;;;;5020215;28;20045;-77
2022/11/15 05:54:21;;;;;;;70.97;24.15;;;;;;;;;;5029190;28;20058;-79
2022/11/15 05:56:48;;;;;;;65.60;22.00;;;;;;;;;;5005485;28;20050;-75
2022/11/15 05:59:15;;;;;;;61.78;23.65;;;;;;;;;;5005398;28;20066;-80
2022/11/15 06:01:41;;;;;;;70.97;23.40;;;;;;;;;;5008506;28;20060;-81
2022/11/15 06:04:07;;;;;;;63.83;24.48;;;;;;;;;;5006776;28;20058;-77
2022/11/15 06:06:34;;;;;;;76.82;23.27;;;;;;;;;;4990666;28;20883;-79
2022/11/15 06:09:00;;;;;;;68.68;24.00;;;;;;;;;;4991051;28;20061;-77
2022/11/15 06:11:27;;;;;;;66.00;23.50;;;;;;;;;;5009877;28;20054;-79
2022/11/15 06:13:54;;;;;;;70.47;23.08;;;;;;;;;;4988597;28;20064;-81
2022/11/15 06:16:20;;;;;;;73.32;23.23;;;;;;;;;;4991718;28;20896;-81
2022/11/15 06:18:46;;;;;;;72.63;24.65;;;;;;;;;;4986388;28;20051;-80
2022/11/15 06:21:14;;;;;;;73.50;24.40;;;;;;;;;;4988759;28;20062;-77
2022/11/15 06:23:40;;;;;;;66.78;23.33;;;;;;;;;;4981465;28;20062;-80
2022/11/15 06:26:07;;;;;;;74.97;24.70;;;;;;;;;;5003084;28;20058;-81
2022/11/15 06:28:33;;;;;;;74.70;24.38;;;;;;;;;;4986387;28;20058;-79
2022/11/15 06:31:07;;;;;;;65.40;23.58;;;;;;;;;;4997358;28;20062;-77
2022/11/15 06:33:33;;;;;;;73.78;25.27;;;;;;;;;;4985607;28;20067;-78
2022/11/15 06:36:04;;;;;;;75.32;25.13;;;;;;;;;;4989673;28;20062;-80
2022/11/15 06:38:30;;;;;;;64.20;22.90;;;;;;;;;;5004354;28;20472;-80
2022/11/15 06:41:04;;;;;;;79.57;23.35;;;;;;;;;;5007307;28;20054;-79
2022/11/15 06:43:30;;;;;;;69.70;23.35;;;;;;;;;;4987261;28;20477;-78
2022/11/15 06:45:57;;;;;;;69.38;24.08;;;;;;;;;;4983433;28;20779;-79
2022/11/15 06:48:24;;;;;;;70.35;23.80;;;;;;;;;;4999023;28;20054;-78
2022/11/15 06:50:51;;;;;;;67.22;22.77;;;;;;;;;;5000499;28;21101;-76
2022/11/15 06:53:18;;;;;;;57.83;22.23;;;;;;;;;;4985427;28;20055;-78
2022/11/15 06:55:44;;;;;;;74.40;23.60;;;;;;;;;;5010379;28;20055;-79
2022/11/15 06:58:10;;;;;;;65.45;21.95;;;;;;;;;;4998226;28;20058;-77
2022/11/15 07:00:37;;;;;;;66.68;23.63;;;;;;;;;;4993569;28;21227;-80
2022/11/15 07:03:03;;;;;;;73.22;23.95;;;;;;;;;;4988180;28;20548;-78
2022/11/15 07:05:29;;;;;;;70.30;23.73;;;;;;;;;;4990054;28;20058;-77
2022/11/15 07:07:56;;;;;;;61.60;22.52;;;;;;;;;;5010788;28;20042;-78
2022/11/15 07:10:24;;;;;;;65.78;22.52;;;;;;;;;;4991462;28;20061;-81
2022/11/15 07:12:51;;;;;;;67.28;23.30;;;;;;;;;;4989001;28;20954;-79
2022/11/15 07:15:22;;;;;;;71.72;23.50;;;;;;;;;;5003413;28;20088;-78
2022/11/15 07:17:49;;;;;;;65.30;21.50;;;;;;;;;;5003321;28;20112;-80
2022/11/15 07:20:15;;;;;;;59.83;21.25;;;;;;;;;;4989471;28;20073;-80
2022/11/15 07:22:42;;;;;;;61.17;21.98;;;;;;;;;;4988784;28;20050;-80
2022/11/15 07:25:11;;;;;;;66.53;21.88;;;;;;;;;;4993853;28;20077;-79
2022/11/15 07:27:37;;;;;;;61.85;22.30;;;;;;;;;;5008375;28;20133;-79
2022/11/15 07:30:04;;;;;;;62.10;21.05;;;;;;;;;;4991128;28;20140;-81
2022/11/15 07:32:30;;;;;;;54.75;20.00;;;;;;;;;;4989438;28;20054;-80
2022/11/15 07:34:57;;;;;;;61.92;20.08;;;;;;;;;;5005152;28;20055;-77
2022/11/15 07:37:23;;;;;;;59.67;19.90;;;;;;;;;;5007112;28;20062;-79
2022/11/15 07:39:49;;;;;;;62.42;21.45;;;;;;;;;;5007499;28;20059;-79
2022/11/15 07:45:01;;;;;;;51.00;19.60;;;;;;;;;;5015743;28;20058;-81
2022/11/15 07:47:28;;;;;;;51.25;19.17;;;;;;;;;;5016116;28;20065;-78
2022/11/15 07:49:54;;;;;;;53.30;19.58;;;;;;;;;;5005527;28;20537;-81
2022/11/15 07:52:20;;;;;;;44.95;18.40;;;;;;;;;;5007298;28;20050;-80
2022/11/15 07:54:47;;;;;;;45.35;18.63;;;;;;;;;;4990915;28;20133;-80
2022/11/15 07:57:13;;;;;;;42.30;17.45;;;;;;;;;;5008594;28;20042;-79
2022/11/15 07:59:40;;;;;;;44.90;18.92;;;;;;;;;;4990516;28;20051;-80
2022/11/15 08:02:08;;;;;;;46.17;18.02;;;;;;;;;;4990684;28;20878;-80
2022/11/15 08:04:34;;;;;;;38.65;16.50;;;;;;;;;;5007825;28;20050;-79
2022/11/15 08:07:00;;;;;;;39.33;17.10;;;;;;;;;;4993379;28;20046;-80
2022/11/15 08:09:27;;;;;;;44.33;16.52;;;;;;;;;;5003402;28;20051;-81
2022/11/15 08:11:53;;;;;;;45.88;17.95;;;;;;;;;;5008994;28;20065;-80
2022/11/15 08:14:21;;;;;;;43.60;16.92;;;;;;;;;;4983859;28;20054;-80
2022/11/15 08:16:48;;;;;;;41.83;17.05;;;;;;;;;;4989404;28;20046;-80
2022/11/15 08:19:14;;;;;;;45.95;17.25;;;;;;;;;;4990422;28;20065;-80
2022/11/15 08:21:40;;;;;;;37.00;16.65;;;;;;;;;;4989336;28;20061;-80
2022/11/15 08:24:09;;;;;;;33.75;15.25;;;;;;;;;;4988714;28;20046;-80
2022/11/15 08:26:35;;;;;;;39.13;15.70;;;;;;;;;;5007799;28;20842;-80
2022/11/15 08:29:02;;;;;;;35.22;16.23;;;;;;;;;;4993808;28;20057;-80
2022/11/15 08:31:28;;;;;;;36.17;15.38;;;;;;;;;;4997769;28;20590;-80
2022/11/15 08:33:54;;;;;;;38.25;15.85;;;;;;;;;;4989447;28;20058;-80
2022/11/15 08:36:21;;;;;;;36.88;15.90;;;;;;;;;;5012284;28;20667;-80
2022/11/15 08:38:47;;;;;;;35.55;15.55;;;;;;;;;;5006653;28;20062;-81
2022/11/15 08:41:19;;;;;;;36.10;15.93;;;;;;;;;;4988918;28;20054;-80
2022/11/15 08:43:45;;;;;;;36.78;15.25;;;;;;;;;;5006653;28;20057;-79
2022/11/15 08:46:12;;;;;;;35.33;16.13;;;;;;;;;;5009583;28;20051;-80
2022/11/15 08:48:38;;;;;;;37.10;15.85;;;;;;;;;;4987797;28;20058;-80
2022/11/15 08:51:05;;;;;;;35.13;16.30;;;;;;;;;;5004533;28;20054;-80
2022/11/15 08:53:33;;;;;;;36.90;15.40;;;;;;;;;;4989953;28;20527;-80
2022/11/15 08:55:59;;;;;;;35.83;14.23;;;;;;;;;;4989410;28;20050;-80
2022/11/15 08:58:28;;;;;;;35.50;15.45;;;;;;;;;;4989156;28;20065;-80
2022/11/15 09:00:55;;;;;;;33.08;15.63;;;;;;;;;;5006534;28;20062;-80
2022/11/15 09:03:22;;;;;;;30.75;14.88;;;;;;;;;;4991560;28;20062;-80
2022/11/15 09:05:58;;;;;;;31.25;15.45;;;;;;;;;;4992022;28;20915;-79
2022/11/15 09:08:25;;;;;;;30.48;14.10;;;;;;;;;;5006511;28;20058;-79
2022/11/15 09:11:12;;;;;;;27.02;13.85;;;;;;;;;;4992926;28;20058;-79
2022/11/15 09:13:39;;;;;;;27.55;13.85;;;;;;;;;;4989573;28;20054;-81
2022/11/15 09:16:05;;;;;;;28.35;13.30;;;;;;;;;;4983804;28;20059;-80
2022/11/15 09:18:31;;;;;;;28.38;14.02;;;;;;;;;;4986039;28;20062;-80
2022/11/15 09:20:59;;;;;;;26.55;12.75;;;;;;;;;;5007272;28;20058;-80
2022/11/15 09:23:25;;;;;;;25.67;12.55;;;;;;;;;;4988591;28;20054;-79
2022/11/15 09:25:53;;;;;;;22.92;11.82;;;;;;;;;;4989648;28;20066;-80
2022/11/15 09:28:19;;;;;;;25.15;11.80;;;;;;;;;;5017383;28;20061;-80
2022/11/15 09:30:45;;;;;;;20.98;10.48;;;;;;;;;;4992483;28;20045;-80
2022/11/15 09:33:12;;;;;;;23.83;11.43;;;;;;;;;;5004802;28;20065;-80
2022/11/15 09:35:41;;;;;;;26.10;10.32;;;;;;;;;;5005846;28;20056;-81
2022/11/15 09:38:07;;;;;;;18.40;9.90;;;;;;;;;;5004240;28;20592;-82
2022/11/15 09:40:36;;;;;;;19.25;9.90;;;;;;;;;;5006213;28;20058;-81
2022/11/15 09:43:17;;;;;;;19.77;9.57;;;;;;;;;;4980801;28;20055;-82
2022/11/15 09:45:54;;;;;;;17.63;9.10;;;;;;;;;;4999232;28;20054;-81
2022/11/15 09:48:36;;;;;;;16.55;9.40;;;;;;;;;;4984793;28;20440;-82
2022/11/15 09:51:08;;;;;;;19.15;9.10;;;;;;;;;;4987653;28;20078;-80
2022/11/15 09:53:55;;;;;;;18.33;8.50;;;;;;;;;;4996342;28;20065;-80
2022/11/15 09:56:43;;;;;;;13.88;7.38;;;;;;;;;;4957660;28;20258;-80
2022/11/15 09:59:28;;;;;;;17.63;8.27;;;;;;;;;;5008698;28;20060;-80
2022/11/15 10:01:55;;;;;;;15.80;8.35;;;;;;;;;;5008175;28;20074;-81
2022/11/15 10:04:22;;;;;;;15.85;8.55;;;;;;;;;;5007148;28;20057;-80
2022/11/15 10:06:53;;;;;;;15.68;7.20;;;;;;;;;;4990523;28;20532;-81
2022/11/15 10:09:23;;;;;;;14.05;7.30;;;;;;;;;;5011708;28;20058;-79
2022/11/15 10:11:49;;;;;;;13.27;6.53;;;;;;;;;;4991810;28;20062;-81
2022/11/15 10:14:23;;;;;;;12.82;7.20;;;;;;;;;;4992917;28;20062;-81
2022/11/15 10:17:08;;;;;;;16.13;6.53;;;;;;;;;;4985385;28;20425;-81
2022/11/15 10:19:46;;;;;;;14.15;5.97;;;;;;;;;;5010807;28;20046;-81
2022/11/15 10:22:16;;;;;;;10.02;5.97;;;;;;;;;;4993798;28;20061;-81
2022/11/15 10:24:43;;;;;;;10.63;5.20;;;;;;;;;;5008428;28;20865;-80
2022/11/15 10:27:11;;;;;;;11.43;4.93;;;;;;;;;;4990994;28;20118;-80
2022/11/15 10:29:42;;;;;;;10.07;5.35;;;;;;;;;;4993507;28;20054;-80
2022/11/15 10:32:10;;;;;;;7.30;3.95;;;;;;;;;;4991598;28;20062;-80
2022/11/15 10:34:37;;;;;;;8.52;4.20;;;;;;;;;;5010463;28;20058;-81
2022/11/15 10:37:03;;;;;;;8.30;4.30;;;;;;;;;;4989179;28;20156;-81
2022/11/15 10:39:30;;;;;;;8.30;4.45;;;;;;;;;;4994547;28;20058;-80
2022/11/15 10:41:56;;;;;;;9.05;4.03;;;;;;;;;;4993321;28;20517;-81
2022/11/15 10:44:24;;;;;;;7.28;4.25;;;;;;;;;;5007858;28;20059;-81
2022/11/15 10:46:54;;;;;;;10.73;4.50;;;;;;;;;;4991169;28;20109;-80
2022/11/15 10:49:21;;;;;;;7.60;4.30;;;;;;;;;;4993754;28;20054;-80
2022/11/15 10:51:53;;;;;;;7.15;3.63;;;;;;;;;;4985040;28;20718;-80
2022/11/15 10:54:41;;;;;;;7.45;3.70;;;;;;;;;;4991597;28;20057;-80
2022/11/15 10:57:10;;;;;;;7.95;3.50;;;;;;;;;;5008884;28;20054;-80
2022/11/15 10:59:37;;;;;;;6.63;3.30;;;;;;;;;;5011199;28;20054;-80
2022/11/15 11:02:26;;;;;;;6.75;3.20;;;;;;;;;;4988075;28;20449;-80
2022/11/15 11:04:52;;;;;;;7.38;3.30;;;;;;;;;;5004603;28;20050;-79
2022/11/15 11:07:27;;;;;;;10.52;3.75;;;;;;;;;;4985747;28;20497;-80
2022/11/15 11:09:59;;;;;;;6.45;3.20;;;;;;;;;;4992171;28;20141;-80
2022/11/15 11:12:33;;;;;;;6.90;3.45;;;;;;;;;;4991072;28;20916;-80
2022/11/15 11:15:00;;;;;;;6.63;3.40;;;;;;;;;;5007730;28;20066;-80
2022/11/15 11:17:36;;;;;;;11.68;3.53;;;;;;;;;;5007706;28;20062;-80
2022/11/15 11:20:24;;;;;;;6.28;3.10;;;;;;;;;;4986052;28;21275;-80
2022/11/15 11:23:23;;;;;;;7.45;3.22;;;;;;;;;;4988500;28;20869;-80
2022/11/15 11:25:55;;;;;;;10.07;3.50;;;;;;;;;;4972158;28;20046;-80
2022/11/15 11:28:22;;;;;;;6.32;3.20;;;;;;;;;;5000466;28;20054;-80
2022/11/15 11:30:54;;;;;;;5.90;3.20;;;;;;;;;;5009264;28;20061;-80
2022/11/15 11:33:31;;;;;;;5.47;3.25;;;;;;;;;;4983740;28;20050;-80
2022/11/15 11:35:58;;;;;;;6.32;3.00;;;;;;;;;;5007740;28;20054;-78
2022/11/15 11:38:44;;;;;;;7.53;2.90;;;;;;;;;;4999459;28;20050;-79
2022/11/15 11:41:10;;;;;;;5.05;2.50;;;;;;;;;;4985815;28;20057;-80
2022/11/15 11:43:44;;;;;;;7.72;2.95;;;;;;;;;;4983333;28;20066;-79
2022/11/15 11:46:25;;;;;;;6.60;2.63;;;;;;;;;;4999007;28;20847;-79
2022/11/15 11:48:54;;;;;;;6.53;2.40;;;;;;;;;;4985074;28;20054;-78
2022/11/15 11:51:36;;;;;;;6.65;2.55;;;;;;;;;;5005831;28;20061;-78
2022/11/15 11:54:11;;;;;;;5.00;2.22;;;;;;;;;;4988052;28;20085;-79
2022/11/15 11:56:39;;;;;;;6.28;1.90;;;;;;;;;;5000123;28;21100;-79
2022/11/15 11:59:26;;;;;;;5.25;1.80;;;;;;;;;;4981268;28;20055;-78
2022/11/15 12:01:52;;;;;;;6.68;1.73;;;;;;;;;;4961316;28;20174;-79
2022/11/15 12:04:39;;;;;;;7.97;1.60;;;;;;;;;;4989305;28;20501;-79
2022/11/15 12:07:15;;;;;;;5.25;1.30;;;;;;;;;;4987192;28;20114;-79
2022/11/15 12:09:48;;;;;;;5.03;1.42;;;;;;;;;;4988157;28;20067;-79
2022/11/15 12:12:23;;;;;;;7.53;1.55;;;;;;;;;;4991093;28;20058;-79
2022/11/15 12:14:59;;;;;;;6.80;1.30;;;;;;;;;;4990179;28;20062;-79
2022/11/15 12:17:26;;;;;;;7.05;1.30;;;;;;;;;;5009214;28;21252;-79
2022/11/15 12:19:57;;;;;;;5.15;1.27;;;;;;;;;;4990960;28;20583;-80
2022/11/15 12:22:35;;;;;;;5.60;1.70;;;;;;;;;;5005000;28;20058;-80
2022/11/15 12:25:04;;;;;;;10.13;1.40;;;;;;;;;;5008573;28;21152;-79
2022/11/15 12:27:34;;;;;;;6.40;1.40;;;;;;;;;;5007506;28;20062;-78
2022/11/15 12:30:03;;;;;;;5.67;1.30;;;;;;;;;;5007784;28;20053;-79
2022/11/15 12:32:32;;;;;;;4.78;1.00;;;;;;;;;;4990704;28;20065;-78
2022/11/15 12:35:00;;;;;;;5.30;1.20;;;;;;;;;;4991078;28;20069;-80
2022/11/15 12:37:35;;;;;;;9.20;1.30;;;;;;;;;;4990254;28;20051;-80
2022/11/15 12:40:21;;;;;;;4.85;1.23;;;;;;;;;;5019349;28;20064;-79
2022/11/15 12:43:07;;;;;;;6.93;1.40;;;;;;;;;;5010447;28;20034;-79
2022/11/15 12:45:35;;;;;;;5.85;1.10;;;;;;;;;;4977709;28;20057;-80
2022/11/15 12:48:21;;;;;;;5.47;1.58;;;;;;;;;;5010491;28;20065;-78
2022/11/15 12:50:51;;;;;;;7.15;1.65;;;;;;;;;;4984406;28;20053;-79
2022/11/15 12:53:27;;;;;;;5.05;1.73;;;;;;;;;;4991534;28;20058;-80
2022/11/15 12:56:06;;;;;;;5.60;1.30;;;;;;;;;;5011156;28;20093;-80
2022/11/15 12:58:46;;;;;;;6.32;1.50;;;;;;;;;;4990486;28;20577;-79
2022/11/15 13:01:33;;;;;;;6.40;1.20;;;;;;;;;;4972990;28;21033;-80
2022/11/15 13:04:18;;;;;;;9.77;1.40;;;;;;;;;;4974811;28;20136;-79
2022/11/15 13:06:56;;;;;;;4.35;1.27;;;;;;;;;;5008092;28;20130;-78
2022/11/15 13:09:31;;;;;;;6.75;1.80;;;;;;;;;;4990499;28;20132;-79
2022/11/15 13:11:59;;;;;;;6.20;1.88;;;;;;;;;;4990862;28;20050;-80
2022/11/15 13:14:41;;;;;;;6.35;1.70;;;;;;;;;;5006773;28;20351;-79
2022/11/15 13:17:19;;;;;;;7.00;1.75;;;;;;;;;;5008086;28;20146;-79
2022/11/15 13:19:47;;;;;;;7.75;1.42;;;;;;;;;;4999638;28;20046;-79
2022/11/15 13:25:00;;;;;;;5.28;1.40;;;;;;;;;;5007143;28;20824;-79
2022/11/15 13:27:27;;;;;;;8.88;2.05;;;;;;;;;;5005785;28;20514;-80
2022/11/15 13:29:53;;;;;;;7.50;2.03;;;;;;;;;;4993281;28;20120;-78
2022/11/15 13:32:20;;;;;;;6.63;1.58;;;;;;;;;;5008788;28;20140;-79
2022/11/15 13:34:48;;;;;;;4.90;1.65;;;;;;;;;;4996203;28;20046;-80
2022/11/15 13:37:20;;;;;;;9.85;1.92;;;;;;;;;;5006173;28;20065;-79
2022/11/15 13:39:47;;;;;;;5.38;1.80;;;;;;;;;;5006863;28;20512;-79
2022/11/15 13:42:14;;;;;;;4.05;1.60;;;;;;;;;;5007670;28;20862;-79
2022/11/15 13:44:54;;;;;;;4.90;1.73;;;;;;;;;;4992636;28;20082;-79
2022/11/15 13:47:21;;;;;;;8.80;1.67;;;;;;;;;;5018584;28;20065;-79
2022/11/15 13:49:47;;;;;;;5.68;1.80;;;;;;;;;;5014392;28;20906;-78
2022/11/15 13:52:16;;;;;;;3.83;1.50;;;;;;;;;;4992109;28;20062;-78
2022/11/15 13:54:43;;;;;;;9.80;1.70;;;;;;;;;;4992863;28;20069;-79
2022/11/15 13:57:13;;;;;;;5.60;1.50;;;;;;;;;;5003385;28;20058;-79
2022/11/15 13:59:55;;;;;;;6.82;1.65;;;;;;;;;;5010767;28;20062;-79
2022/11/15 14:02:39;;;;;;;4.68;1.73;;;;;;;;;;5009868;28;20517;-80
2022/11/15 14:05:16;;;;;;;4.63;2.00;;;;;;;;;;5024386;28;20110;-80
2022/11/15 14:07:56;;;;;;;8.40;1.98;;;;;;;;;;5011758;28;20058;-80
2022/11/15 14:10:30;;;;;;;5.45;1.73;;;;;;;;;;5009079;28;20054;-80
2022/11/15 14:12:57;;;;;;;8.13;2.13;;;;;;;;;;4989930;28;20065;-79
2022/11/15 14:15:23;;;;;;;5.30;1.45;;;;;;;;;;4991026;28;20118;-80
2022/11/15 14:17:50;;;;;;;4.88;1.40;;;;;;;;;;4993373;28;20058;-79
2022/11/15 14:20:25;;;;;;;5.93;1.50;;;;;;;;;;4992710;28;20051;-78
2022/11/15 14:22:53;;;;;;;4.47;1.40;;;;;;;;;;4973603;28;20058;-79
2022/11/15 14:25:21;;;;;;;7.10;1.70;;;;;;;;;;4990578;28;20058;-79
2022/11/15 14:28:06;;;;;;;6.30;1.60;;;;;;;;;;4990118;28;20050;-79
2022/11/15 14:30:32;;;;;;;3.70;1.33;;;;;;;;;;4979168;28;20093;-79
2022/11/15 14:32:58;;;;;;;6.25;1.58;;;;;;;;;;5005356;28;20045;-79
2022/11/15 14:35:25;;;;;;;4.82;1.55;;;;;;;;;;5005170;28;20062;-79
2022/11/15 14:37:51;;;;;;;4.43;1.40;;;;;;;;;;4990342;28;20058;-79
2022/11/15 14:40:19;;;;;;;4.72;1.50;;;;;;;;;;5008244;28;20049;-79
2022/11/15 14:42:46;;;;;;;7.40;1.60;;;;;;;;;;4991225;28;20571;-78
2022/11/15 14:45:17;;;;;;;7.70;1.73;;;;;;;;;;4991985;28;20065;-79
2022/11/15 14:47:44;;;;;;;3.97;1.55;;;;;;;;;;4991908;28;20058;-79
2022/11/15 14:50:11;;;;;;;6.55;1.90;;;;;;;;;;5006238;28;20112;-79
2022/11/15 14:52:37;;;;;;;4.22;1.98;;;;;;;;;;4989791;28;20066;-79
2022/11/15 14:55:11;;;;;;;7.10;2.05;;;;;;;;;;5010560;28;20054;-79
2022/11/15 14:57:37;;;;;;;6.13;1.73;;;;;;;;;;4991127;28;20061;-80
2022/11/15 15:00:04;;;;;;;5.13;1.90;;;;;;;;;;4988730;28;20871;-78
2022/11/15 15:02:30;;;;;;;5.55;1.50;;;;;;;;;;4970290;28;20517;-78
2022/11/15 15:05:00;;;;;;;6.05;2.15;;;;;;;;;;4987120;28;20054;-78
2022/11/15 15:07:27;;;;;;;7.60;1.70;;;;;;;;;;4988916;28;20058;-78
2022/11/15 15:09:53;;;;;;;5.28;1.70;;;;;;;;;;4988058;28;20621;-79
2022/11/15 15:12:40;;;;;;;8.20;1.48;;;;;;;;;;5018334;28;20053;-77
2022/11/15 15:15:12;;;;;;;8.88;1.67;;;;;;;;;;5006227;28;20070;-78
2022/11/15 15:17:38;;;;;;;5.00;1.40;;;;;;;;;;5007403;28;20055;-78
2022/11/15 15:20:04;;;;;;;4.20;1.42;;;;;;;;;;4989551;28;20054;-78
2022/11/15 15:22:31;;;;;;;4.80;1.60;;;;;;;;;;4989677;28;20088;-78
2022/11/15 15:24:57;;;;;;;7.90;1.60;;;;;;;;;;4989735;28;20219;-78
2022/11/15 15:27:23;;;;;;;7.50;2.15;;;;;;;;;;4986228;28;20058;-79
2022/11/15 15:29:50;;;;;;;10.02;1.80;;;;;;;;;;5012992;28;20148;-79
2022/11/15 15:32:16;;;;;;;4.13;1.48;;;;;;;;;;5011077;28;20054;-79
2022/11/15 15:34:42;;;;;;;4.32;1.40;;;;;;;;;;5006079;28;20064;-79
2022/11/15 15:37:18;;;;;;;5.57;1.65;;;;;;;;;;4989374;28;20066;-78